createdAt,value
2023-01-04T00:00:09.753Z,96289.19
2023-01-04T00:02:38.608Z,96283.08
2023-01-04T00:05:07.926Z,96282.05
2023-01-04T00:07:36.713Z,96281.62
2023-01-04T00:10:05.858Z,96283.20
2023-01-04T00:12:36.974Z,96290.77
2023-01-04T00:15:06.344Z,96285.89
2023-01-04T00:17:35.316Z,96286.84
2023-01-04T00:20:04.000Z,96291.28
2023-01-04T00:22:35.476Z,96289.28
2023-01-04T00:25:04.203Z,96288.73
2023-01-04T00:27:32.964Z,96287.88
2023-01-04T00:30:01.637Z,96284.88
2023-01-04T00:32:32.402Z,96288.45
2023-01-04T00:35:01.145Z,96292.50
2023-01-04T00:37:29.852Z,96294.55
2023-01-04T00:39:59.296Z,96294.33
2023-01-04T00:42:28.127Z,96299.73
2023-01-04T00:44:56.879Z,96291.75
2023-01-04T00:47:25.576Z,96288.70
2023-01-04T00:49:54.372Z,96288.90
2023-01-04T00:52:23.182Z,96292.41
2023-01-04T00:54:51.957Z,96286.09
2023-01-04T00:57:20.641Z,96293.63
2023-01-04T00:59:49.234Z,96290.00
2023-01-04T01:02:18.309Z,96298.29
2023-01-04T01:04:47.268Z,96300.73
2023-01-04T01:07:15.988Z,96299.39
2023-01-04T01:09:44.626Z,96299.84
2023-01-04T01:12:13.383Z,96308.70
2023-01-04T01:14:42.132Z,96311.75
2023-01-04T01:17:10.847Z,96314.63
2023-01-04T01:19:42.784Z,96313.47
2023-01-04T01:22:11.756Z,96315.30
2023-01-04T01:24:40.527Z,96321.02
2023-01-04T01:27:13.456Z,96322.09
2023-01-04T01:29:42.917Z,96318.33
2023-01-04T01:32:11.683Z,96319.44
2023-01-04T01:34:40.861Z,96310.80
2023-01-04T01:37:09.426Z,96314.38
2023-01-04T01:39:38.061Z,96306.81
2023-01-04T01:42:06.817Z,96308.11
2023-01-04T01:44:47.414Z,96312.17
2023-01-04T01:47:19.898Z,96310.14
2023-01-04T01:49:50.912Z,96309.81
2023-01-04T01:52:25.267Z,96313.13
2023-01-04T01:54:59.638Z,96309.36
2023-01-04T01:57:31.241Z,96303.75
2023-01-04T02:00:02.556Z,96302.65
2023-01-04T02:02:31.517Z,96295.08
2023-01-04T02:05:03.064Z,96293.50
2023-01-04T02:07:32.427Z,96295.48
2023-01-04T02:10:03.145Z,96292.64
2023-01-04T02:12:31.896Z,96292.76
2023-01-04T02:15:00.604Z,96292.16
2023-01-04T02:17:38.138Z,96306.84
2023-01-04T02:20:15.448Z,96299.42
2023-01-04T02:23:17.440Z,96299.11
2023-01-04T02:26:05.683Z,96302.03
2023-01-04T02:29:03.193Z,96303.09
2023-01-04T02:31:43.602Z,96295.50
2023-01-04T02:34:38.768Z,96300.93
2023-01-04T02:37:13.118Z,96276.10
2023-01-04T02:39:59.482Z,96299.49
2023-01-04T02:42:54.780Z,96294.30
2023-01-04T02:45:26.763Z,96289.72
2023-01-04T02:48:13.473Z,96298.29
2023-01-04T02:50:53.750Z,96299.89
2023-01-04T02:53:27.180Z,96295.78
2023-01-04T02:56:27.361Z,96297.13
2023-01-04T02:58:59.119Z,96293.58
2023-01-04T03:01:48.899Z,96290.15
2023-01-04T03:04:53.286Z,96296.09
2023-01-04T03:07:39.848Z,96301.32
2023-01-04T03:10:29.663Z,96293.20
2023-01-04T03:13:01.241Z,96294.08
2023-01-04T03:15:35.463Z,96290.05
2023-01-04T03:18:22.213Z,96290.98
2023-01-04T03:20:52.943Z,96293.93
2023-01-04T03:23:42.393Z,96295.26
2023-01-04T03:26:15.732Z,96299.39
2023-01-04T03:29:03.472Z,96298.67
2023-01-04T03:31:58.947Z,96311.05
2023-01-04T03:34:46.239Z,96311.11
2023-01-04T03:37:23.560Z,96311.76
2023-01-04T03:40:44.821Z,96307.08
2023-01-04T03:43:40.604Z,96291.92
2023-01-04T03:46:32.619Z,96294.86
2023-01-04T03:49:10.074Z,96298.67
2023-01-04T03:51:41.685Z,96305.24
2023-01-04T03:54:16.249Z,96301.16
2023-01-04T03:56:46.970Z,96305.59
2023-01-04T03:59:19.283Z,96307.30
2023-01-04T04:01:55.389Z,96307.68
2023-01-04T04:04:42.401Z,96307.45
2023-01-04T04:07:31.492Z,96306.48
2023-01-04T04:10:01.701Z,96312.21
2023-01-04T04:12:30.442Z,96309.23
2023-01-04T04:15:01.865Z,96311.18
2023-01-04T04:17:30.820Z,96313.59
2023-01-04T04:19:59.566Z,96319.52
2023-01-04T04:22:28.294Z,96319.35
2023-01-04T04:24:57.439Z,96319.47
2023-01-04T04:27:37.392Z,96323.00
2023-01-04T04:30:52.738Z,96316.92
2023-01-04T04:33:08.085Z,96328.69
2023-01-04T04:35:49.482Z,96325.77
2023-01-04T04:38:26.659Z,96328.19
2023-01-04T04:41:17.953Z,96329.81
2023-01-04T04:43:47.906Z,96332.17
2023-01-04T04:46:16.824Z,96326.16
2023-01-04T04:48:47.339Z,96330.02
2023-01-04T04:51:16.289Z,96333.02
2023-01-04T04:53:45.307Z,96334.34
2023-01-04T04:56:13.999Z,96339.20
2023-01-04T04:58:42.882Z,96344.19
2023-01-04T05:01:11.893Z,96328.14
2023-01-04T05:03:40.859Z,96337.82
2023-01-04T05:06:09.856Z,96339.66
2023-01-04T05:08:38.552Z,96332.63
2023-01-04T05:11:09.390Z,96347.16
2023-01-04T05:13:38.492Z,96343.03
2023-01-04T05:16:08.544Z,96354.20
2023-01-04T05:18:42.587Z,96337.48
2023-01-04T05:21:08.101Z,96344.78
2023-01-04T05:23:36.869Z,96349.09
2023-01-04T05:26:05.698Z,96350.16
2023-01-04T05:28:34.362Z,96351.91
2023-01-04T05:31:03.019Z,96352.36
2023-01-04T05:33:33.891Z,96358.12
2023-01-04T05:36:04.746Z,96355.07
2023-01-04T05:38:35.074Z,96360.48
2023-01-04T05:41:03.749Z,96365.63
2023-01-04T05:43:32.296Z,96359.28
2023-01-04T05:46:01.067Z,96362.97
2023-01-04T05:48:29.903Z,96372.72
2023-01-04T05:50:58.469Z,96373.36
2023-01-04T05:53:27.177Z,96364.69
2023-01-04T05:55:55.967Z,96365.63
2023-01-04T05:58:24.695Z,96370.94
2023-01-04T06:00:53.374Z,96369.06
2023-01-04T06:03:22.224Z,96367.11
2023-01-04T06:05:52.343Z,96368.21
2023-01-04T06:08:20.959Z,96376.08
2023-01-04T06:10:54.820Z,96366.23
2023-01-04T06:13:23.709Z,96369.02
2023-01-04T06:15:52.335Z,96372.33
2023-01-04T06:18:20.972Z,96369.50
2023-01-04T06:20:52.402Z,96382.45
2023-01-04T06:23:21.116Z,96385.66
2023-01-04T06:25:49.805Z,96388.47
2023-01-04T06:28:18.536Z,96386.43
2023-01-04T06:30:47.206Z,96391.02
2023-01-04T06:33:16.048Z,96391.73
2023-01-04T06:35:44.635Z,96392.29
2023-01-04T06:38:13.716Z,96393.03
2023-01-04T06:40:42.355Z,96396.78
2023-01-04T06:43:10.967Z,96399.77
2023-01-04T06:45:39.619Z,96400.09
2023-01-04T06:48:09.383Z,96401.99
2023-01-04T06:50:38.471Z,96403.09
2023-01-04T06:53:07.140Z,96404.70
2023-01-04T06:55:35.935Z,96406.59
2023-01-04T06:58:06.112Z,96408.20
2023-01-04T07:00:34.683Z,96403.82
2023-01-04T07:03:14.784Z,96396.58
2023-01-04T07:05:34.131Z,96397.34
2023-01-04T07:08:08.383Z,96398.67
2023-01-04T07:10:37.933Z,96400.33
2023-01-04T07:13:11.130Z,96410.23
2023-01-04T07:16:18.569Z,96410.91
2023-01-04T07:22:12.741Z,96421.70
2023-01-04T07:24:46.774Z,96423.97
2023-01-04T07:37:15.763Z,96422.80
2023-01-04T07:39:55.286Z,96428.25
2023-01-04T07:42:30.803Z,96431.32
2023-01-04T07:45:17.776Z,96426.50
2023-01-04T07:48:14.451Z,96431.52
2023-01-04T07:51:11.020Z,96432.79
2023-01-04T07:59:39.044Z,96429.01
2023-01-04T08:02:08.460Z,96444.78
2023-01-04T08:04:37.451Z,96437.23
2023-01-04T08:07:06.755Z,96438.23
2023-01-04T08:09:35.445Z,96444.16
2023-01-04T08:12:04.512Z,96437.62
2023-01-04T08:14:35.723Z,96438.72
2023-01-04T08:17:04.388Z,96440.53
2023-01-04T08:19:33.180Z,96450.19
2023-01-04T08:22:06.042Z,96439.80
2023-01-04T08:24:45.537Z,96441.39
2023-01-04T08:27:24.290Z,96437.03
2023-01-04T08:30:00.353Z,96441.91
2023-01-04T08:32:43.918Z,96440.47
2023-01-04T08:35:30.511Z,96445.65
2023-01-04T08:41:57.334Z,96445.29
2023-01-04T08:44:03.495Z,96449.86
2023-01-04T08:46:41.089Z,96450.91
2023-01-04T08:49:28.839Z,96453.95
2023-01-04T08:52:11.891Z,96455.45
2023-01-04T08:57:46.028Z,96456.19
2023-01-04T09:00:20.015Z,96449.35
2023-01-04T09:02:55.382Z,96458.74
2023-01-04T09:06:07.858Z,96456.87
2023-01-04T09:12:04.919Z,96449.47
2023-01-04T09:14:42.715Z,96450.34
2023-01-04T09:17:11.399Z,96449.28
2023-01-04T09:19:39.938Z,96445.03
2023-01-04T09:22:08.787Z,96466.46
2023-01-04T09:24:37.622Z,96440.72
2023-01-04T09:27:06.266Z,96443.27
2023-01-04T09:29:34.937Z,96438.13
2023-01-04T09:32:03.830Z,96438.91
2023-01-04T09:34:32.479Z,96436.66
2023-01-04T09:37:01.170Z,96435.55
2023-01-04T09:39:30.673Z,96442.53
2023-01-04T09:42:03.504Z,96437.51
2023-01-04T09:45:40.892Z,96441.87
2023-01-04T09:47:20.599Z,96436.39
2023-01-04T09:49:55.048Z,96435.95
2023-01-04T09:52:47.809Z,96432.92
2023-01-04T09:55:39.630Z,96435.30
2023-01-04T09:57:58.775Z,96422.91
2023-01-04T10:00:35.362Z,96427.50
2023-01-04T10:03:09.830Z,96427.83
2023-01-04T10:05:38.679Z,96423.45
2023-01-04T10:08:16.832Z,96426.28
2023-01-04T10:10:55.824Z,96431.86
2023-01-04T10:13:35.735Z,96428.44
2023-01-04T10:17:01.206Z,96437.03
2023-01-04T10:19:51.468Z,96433.92
2023-01-04T10:21:47.960Z,96426.63
2023-01-04T10:24:45.400Z,96425.63
2023-01-04T10:27:50.227Z,96425.35
2023-01-04T10:30:21.889Z,96421.36
2023-01-04T10:32:56.209Z,96420.37
2023-01-04T10:35:28.870Z,96422.36
2023-01-04T10:38:04.260Z,96420.75
2023-01-04T10:40:47.191Z,96416.86
2023-01-04T10:43:26.311Z,96416.98
2023-01-04T10:46:10.092Z,96412.84
2023-01-04T10:49:02.937Z,96419.76
2023-01-04T10:51:37.273Z,96422.11
2023-01-04T10:54:17.628Z,96424.16
2023-01-04T10:56:52.716Z,96422.97
2023-01-04T10:59:36.613Z,96420.69
2023-01-04T11:02:11.717Z,96421.28
2023-01-04T11:04:49.461Z,96415.53
2023-01-04T11:07:21.059Z,96412.86
2023-01-04T11:09:59.041Z,96413.17
2023-01-04T11:12:28.175Z,96409.15
2023-01-04T11:14:57.034Z,96405.91
2023-01-04T11:17:26.230Z,96405.70
2023-01-04T11:19:55.729Z,96399.44
2023-01-04T11:22:27.439Z,96327.22
2023-01-04T11:27:56.292Z,96389.91
2023-01-04T11:30:27.716Z,96383.44
2023-01-04T11:33:11.115Z,96375.65
2023-01-04T11:35:45.644Z,96372.03
2023-01-04T11:38:33.920Z,96371.88
2023-01-04T11:41:07.845Z,96374.77
2023-01-04T11:43:40.087Z,96368.05
2023-01-04T11:46:11.959Z,96362.73
2023-01-04T11:48:43.693Z,96363.20
2023-01-04T11:51:33.385Z,96360.83
2023-01-04T11:54:17.079Z,96366.75
2023-01-04T11:57:11.781Z,96359.66
2023-01-04T11:59:38.853Z,96354.98
2023-01-04T12:05:39.987Z,96357.06
2023-01-04T12:09:20.757Z,96354.79
2023-01-04T12:12:01.020Z,96353.13
2023-01-04T12:14:52.544Z,96345.31
2023-01-04T14:37:08.787Z,96345.76
2023-01-04T14:39:37.542Z,96349.00
2023-01-04T14:42:07.925Z,96348.77
2023-01-04T14:44:41.242Z,96337.12
2023-01-04T14:47:45.595Z,96335.20
2023-01-04T14:50:27.064Z,96345.75
2023-01-04T14:55:53.164Z,96346.09
2023-01-04T14:58:40.376Z,96350.80
2023-01-04T19:57:33.691Z,96337.21
2023-01-04T20:03:22.675Z,96322.83
2023-01-04T20:05:54.096Z,96338.31
2023-01-04T20:08:23.495Z,96342.08
2023-01-04T20:10:57.299Z,96333.34
2023-01-04T20:13:27.804Z,96334.26
2023-01-04T20:15:56.961Z,96327.86
2023-01-04T20:18:27.314Z,96328.23
2023-01-04T20:20:55.999Z,96329.48
2023-01-04T20:23:24.689Z,96330.52
2023-01-04T20:25:56.054Z,96322.97
2023-01-04T20:28:25.895Z,96317.43
2023-01-04T20:31:06.027Z,96321.16
2023-01-04T20:33:35.074Z,96316.82
2023-01-04T20:36:12.186Z,96317.27
2023-01-04T20:38:45.768Z,96310.19
2023-01-04T20:41:17.336Z,96306.76
2023-01-04T20:43:47.816Z,96304.67
2023-01-04T20:46:19.718Z,96303.25
2023-01-04T20:48:48.841Z,96302.11
2023-01-04T20:51:23.874Z,96304.27
2023-01-04T20:53:53.330Z,96304.34
2023-01-04T20:56:24.774Z,96300.01
2023-01-04T20:58:54.089Z,96290.89
2023-01-04T21:01:25.843Z,96295.87
2023-01-04T21:03:54.893Z,96299.99
2023-01-04T21:06:24.826Z,96300.66
2023-01-04T21:08:55.279Z,96267.23
2023-01-04T21:11:24.335Z,96292.64
2023-01-04T21:13:53.388Z,96288.80
2023-01-04T21:16:22.250Z,96292.16
2023-01-04T21:18:50.904Z,96297.59
2023-01-04T21:21:21.389Z,96300.12
2023-01-04T21:23:56.107Z,96294.95
2023-01-04T21:26:21.317Z,96290.97
2023-01-04T21:28:57.373Z,96296.84
2023-01-04T21:34:38.420Z,96294.53
2023-01-04T21:39:59.596Z,96277.70
2023-01-04T21:42:53.776Z,96285.27
2023-01-04T21:45:27.612Z,96282.23
2023-01-04T21:48:11.133Z,96280.27
2023-01-04T21:50:52.152Z,96284.17
2023-01-04T21:59:26.379Z,96269.11
2023-01-04T22:00:31.112Z,96277.53
2023-01-04T22:02:08.900Z,96267.89
2023-01-04T22:10:32.827Z,96272.83
2023-01-04T22:13:01.132Z,96265.08
2023-01-04T22:15:32.422Z,96266.40
2023-01-04T22:18:02.574Z,96268.41
2023-01-04T22:20:33.725Z,96267.53
2023-01-04T22:23:02.428Z,96266.27
2023-01-04T22:25:35.547Z,96260.19
2023-01-04T22:28:04.372Z,96259.83
2023-01-04T22:30:34.492Z,96243.70
2023-01-04T22:33:03.019Z,96247.19
2023-01-04T22:35:31.678Z,96248.03
2023-01-04T22:38:00.393Z,96239.53
2023-01-04T22:40:30.850Z,96240.02
2023-01-04T22:42:59.466Z,96234.42
2023-01-04T22:45:29.517Z,96233.52
2023-01-04T22:47:58.837Z,96229.67
2023-01-04T22:50:27.933Z,96228.68
2023-01-04T22:52:58.472Z,96223.66
2023-01-04T22:55:45.971Z,96220.89
2023-01-04T22:58:03.491Z,96214.20
2023-01-04T23:00:32.100Z,96213.15
2023-01-04T23:03:03.702Z,96213.35
2023-01-04T23:05:32.982Z,96203.98
2023-01-04T23:08:05.052Z,96194.86
2023-01-04T23:10:36.411Z,96197.99
2023-01-04T23:13:06.513Z,96190.94
2023-01-04T23:15:40.042Z,96184.70
2023-01-04T23:18:08.851Z,96188.38
2023-01-04T23:20:37.452Z,96186.73
2023-01-04T23:23:06.180Z,96191.42
2023-01-04T23:25:36.214Z,96193.66
2023-01-04T23:28:04.842Z,96190.70
2023-01-04T23:30:34.697Z,96193.02
2023-01-04T23:33:03.167Z,96189.37
2023-01-04T23:35:31.823Z,96181.89
2023-01-04T23:38:00.412Z,96188.27
2023-01-04T23:40:29.064Z,96190.69
2023-01-04T23:42:59.380Z,96180.75
2023-01-04T23:45:28.415Z,96180.52
2023-01-04T23:47:57.171Z,96179.20
2023-01-04T23:50:25.751Z,96178.38
2023-01-04T23:52:54.379Z,96174.91
2023-01-04T23:55:23.002Z,96169.70
2023-01-04T23:57:54.131Z,96177.08
